createdAt,value
2023-02-04T00:00:15.731Z,10.95
2023-02-04T00:02:42.762Z,6.10
2023-02-04T00:05:10.408Z,7.65
2023-02-04T00:07:37.461Z,8.07
2023-02-04T00:10:07.655Z,7.45
2023-02-04T00:12:34.584Z,8.00
2023-02-04T00:15:01.619Z,7.18
2023-02-04T00:17:28.540Z,7.40
2023-02-04T00:19:55.488Z,7.18
2023-02-04T00:22:22.415Z,7.95
2023-02-04T00:24:50.702Z,6.20
2023-02-04T00:27:17.877Z,10.15
2023-02-04T00:29:44.789Z,7.88
2023-02-04T00:32:11.832Z,9.77
2023-02-04T00:34:38.808Z,9.68
2023-02-04T00:37:05.851Z,6.15
2023-02-04T00:39:32.835Z,5.55
2023-02-04T00:41:59.709Z,8.18
2023-02-04T00:44:28.828Z,5.78
2023-02-04T00:46:55.715Z,7.10
2023-02-04T00:49:22.653Z,7.15
2023-02-04T00:51:49.717Z,6.10
2023-02-04T00:54:17.217Z,6.30
2023-02-04T00:56:44.706Z,10.65
2023-02-04T00:59:13.815Z,6.57
2023-02-04T01:01:40.736Z,6.57
2023-02-04T01:04:09.771Z,8.05
2023-02-04T01:06:36.756Z,8.45
2023-02-04T01:09:04.318Z,8.07
2023-02-04T01:11:31.711Z,7.38
2023-02-04T01:13:58.871Z,7.72
2023-02-04T01:16:25.939Z,12.65
2023-02-04T01:18:56.031Z,9.70
2023-02-04T01:21:24.257Z,9.15
2023-02-04T01:23:54.053Z,7.72
2023-02-04T01:26:21.257Z,11.25
2023-02-04T01:28:50.987Z,12.88
2023-02-04T01:31:18.224Z,8.63
2023-02-04T01:33:45.226Z,13.80
2023-02-04T01:36:12.261Z,8.63
2023-02-04T01:38:39.259Z,10.23
2023-02-04T01:41:06.592Z,10.68
2023-02-04T01:43:34.296Z,9.27
2023-02-04T01:46:02.734Z,8.75
2023-02-04T01:48:30.051Z,9.48
2023-02-04T01:51:08.073Z,9.05
2023-02-04T01:53:35.753Z,10.48
2023-02-04T01:56:03.338Z,10.07
2023-02-04T01:58:32.341Z,7.90
2023-02-04T02:00:59.306Z,9.57
2023-02-04T02:03:26.236Z,10.20
2023-02-04T02:05:54.335Z,7.93
2023-02-04T02:08:21.398Z,8.07
2023-02-04T02:10:49.500Z,7.57
2023-02-04T02:13:18.267Z,7.40
2023-02-04T02:15:45.479Z,7.38
2023-02-04T02:18:12.677Z,5.32
2023-02-04T02:20:39.776Z,7.85
2023-02-04T02:23:27.788Z,7.57
2023-02-04T02:25:56.863Z,4.47
2023-02-04T02:28:24.111Z,7.82
2023-02-04T02:30:51.567Z,6.85
2023-02-04T02:33:22.201Z,5.30
2023-02-04T02:35:49.375Z,5.75
2023-02-04T02:38:18.045Z,7.32
2023-02-04T02:40:45.569Z,6.05
2023-02-04T02:43:23.155Z,4.90
2023-02-04T02:45:50.655Z,10.38
2023-02-04T02:48:17.806Z,4.63
2023-02-04T02:50:45.051Z,5.70
2023-02-04T02:53:19.513Z,3.60
2023-02-04T02:55:46.877Z,7.13
2023-02-04T02:58:42.940Z,3.42
2023-02-04T03:01:12.943Z,3.22
2023-02-04T03:03:49.003Z,5.82
2023-02-04T03:06:24.621Z,4.68
2023-02-04T03:08:55.304Z,4.40
2023-02-04T03:11:23.032Z,8.13
2023-02-04T03:13:51.372Z,7.90
2023-02-04T03:16:18.454Z,7.05
2023-02-04T03:18:45.533Z,5.50
2023-02-04T03:21:12.450Z,6.38
2023-02-04T03:23:39.530Z,4.32
2023-02-04T03:26:06.756Z,3.53
2023-02-04T03:28:33.749Z,4.15
2023-02-04T03:31:00.771Z,3.63
2023-02-04T03:33:32.008Z,3.67
2023-02-04T03:35:59.313Z,3.43
2023-02-04T03:38:28.919Z,4.25
2023-02-04T03:40:55.791Z,2.90
2023-02-04T03:43:22.717Z,3.30
2023-02-04T03:45:49.585Z,3.35
2023-02-04T03:48:16.536Z,5.28
2023-02-04T03:50:48.725Z,3.53
2023-02-04T03:53:15.672Z,6.63
2023-02-04T03:55:42.522Z,5.68
2023-02-04T03:58:11.918Z,4.50
2023-02-04T04:00:38.871Z,3.88
2023-02-04T04:03:05.845Z,6.25
2023-02-04T04:05:32.764Z,5.70
2023-02-04T04:07:59.704Z,6.50
2023-02-04T04:10:26.562Z,6.25
2023-02-04T04:12:53.449Z,6.18
2023-02-04T04:15:20.310Z,5.47
2023-02-04T04:17:47.242Z,5.47
2023-02-04T04:20:14.157Z,5.78
2023-02-04T04:22:41.105Z,7.00
2023-02-04T04:25:08.601Z,4.00
2023-02-04T04:27:37.674Z,4.10
2023-02-04T04:30:04.872Z,3.58
2023-02-04T04:32:31.820Z,3.38
2023-02-04T04:35:01.310Z,6.57
2023-02-04T04:37:30.661Z,5.03
2023-02-04T04:39:57.582Z,4.45
2023-02-04T04:42:24.488Z,2.47
2023-02-04T04:44:51.381Z,3.22
2023-02-04T04:47:18.342Z,3.47
2023-02-04T04:49:49.927Z,3.08
2023-02-04T04:52:16.832Z,3.97
2023-02-04T04:54:45.879Z,4.15
2023-02-04T04:57:12.764Z,3.53
2023-02-04T04:59:39.620Z,3.63
2023-02-04T05:02:06.480Z,2.95
2023-02-04T05:04:35.475Z,4.75
2023-02-04T05:07:04.649Z,5.38
2023-02-04T05:09:31.503Z,4.25
2023-02-04T05:11:58.424Z,4.50
2023-02-04T05:14:25.277Z,3.83
2023-02-04T05:16:52.199Z,5.75
2023-02-04T05:19:19.068Z,4.70
2023-02-04T05:21:45.933Z,4.07
2023-02-04T05:24:12.829Z,4.60
2023-02-04T05:26:39.816Z,4.28
2023-02-04T05:29:06.649Z,4.60
2023-02-04T05:31:34.202Z,5.45
2023-02-04T05:34:03.652Z,4.00
2023-02-04T05:36:30.513Z,3.10
2023-02-04T05:38:57.486Z,3.35
2023-02-04T05:41:24.472Z,5.35
2023-02-04T05:43:51.306Z,4.35
2023-02-04T05:46:18.231Z,4.75
2023-02-04T05:48:45.098Z,5.18
2023-02-04T05:51:11.933Z,5.53
2023-02-04T05:53:38.798Z,5.95
2023-02-04T05:56:05.885Z,4.47
2023-02-04T05:58:35.603Z,8.52
2023-02-04T06:01:07.135Z,5.13
2023-02-04T06:03:34.193Z,7.60
2023-02-04T06:06:01.235Z,5.45
2023-02-04T06:08:28.208Z,5.55
2023-02-04T06:10:55.171Z,3.65
2023-02-04T06:13:22.129Z,4.93
2023-02-04T06:15:49.049Z,4.63
2023-02-04T06:18:15.975Z,4.82
2023-02-04T06:20:42.960Z,6.93
2023-02-04T06:23:09.880Z,5.68
2023-02-04T06:25:36.950Z,4.97
2023-02-04T06:28:04.343Z,7.82
2023-02-04T06:30:32.284Z,4.55
2023-02-04T06:32:59.366Z,5.25
2023-02-04T06:35:26.406Z,8.13
2023-02-04T06:37:53.365Z,3.92
2023-02-04T06:40:20.373Z,6.47
2023-02-04T06:42:50.747Z,4.07
2023-02-04T06:45:17.748Z,6.40
2023-02-04T06:47:44.675Z,8.75
2023-02-04T06:50:18.698Z,5.82
2023-02-04T06:52:48.860Z,6.70
2023-02-04T06:55:17.203Z,7.07
2023-02-04T06:57:45.020Z,5.22
2023-02-04T07:00:15.305Z,6.22
2023-02-04T07:02:42.605Z,3.22
2023-02-04T07:05:09.647Z,4.50
2023-02-04T07:07:38.685Z,5.82
2023-02-04T07:10:05.900Z,2.63
2023-02-04T07:12:32.952Z,2.47
2023-02-04T07:14:59.787Z,1.63
2023-02-04T07:17:26.752Z,1.85
2023-02-04T07:19:53.767Z,2.95
2023-02-04T07:22:20.833Z,2.22
2023-02-04T07:24:47.928Z,2.05
2023-02-04T07:27:15.015Z,2.10
2023-02-04T07:29:42.038Z,5.10
2023-02-04T07:32:09.011Z,3.40
2023-02-04T07:34:36.201Z,5.40
2023-02-04T07:37:03.490Z,5.32
2023-02-04T07:39:30.383Z,5.85
2023-02-04T07:41:57.266Z,5.38
2023-02-04T07:44:24.382Z,6.05
2023-02-04T07:46:51.275Z,5.30
2023-02-04T07:49:22.793Z,2.97
2023-02-04T07:51:49.802Z,2.85
2023-02-04T07:54:16.780Z,5.28
2023-02-04T07:56:43.872Z,4.85
2023-02-04T07:59:10.810Z,2.35
2023-02-04T08:01:37.811Z,2.75
2023-02-04T08:04:05.034Z,3.65
2023-02-04T08:06:31.992Z,3.42
2023-02-04T08:08:59.144Z,2.75
2023-02-04T08:11:30.956Z,3.03
2023-02-04T08:13:57.813Z,4.50
2023-02-04T08:16:26.955Z,3.72
2023-02-04T08:18:56.035Z,4.32
2023-02-04T08:21:22.892Z,2.72
2023-02-04T08:23:49.750Z,3.67
2023-02-04T08:26:16.643Z,2.85
2023-02-04T08:28:43.565Z,7.40
2023-02-04T08:31:13.437Z,6.68
2023-02-04T08:33:40.475Z,4.95
2023-02-04T08:36:07.968Z,3.10
2023-02-04T08:38:35.068Z,3.42
2023-02-04T08:41:02.368Z,4.57
2023-02-04T08:43:31.956Z,6.35
2023-02-04T08:45:58.948Z,6.10
2023-02-04T08:48:25.925Z,6.13
2023-02-04T08:50:52.808Z,6.32
2023-02-04T08:53:19.741Z,4.45
2023-02-04T08:55:46.621Z,4.28
2023-02-04T08:58:13.499Z,4.25
2023-02-04T09:00:40.350Z,6.07
2023-02-04T09:03:09.473Z,4.55
2023-02-04T09:05:36.420Z,6.80
2023-02-04T09:08:03.480Z,5.18
2023-02-04T09:10:30.665Z,4.65
2023-02-04T09:12:57.771Z,6.75
2023-02-04T09:15:25.203Z,5.13
2023-02-04T09:18:01.434Z,4.65
2023-02-04T09:20:29.546Z,5.45
2023-02-04T09:22:56.643Z,7.10
2023-02-04T09:25:23.521Z,5.80
2023-02-04T09:27:50.486Z,4.22
2023-02-04T09:30:17.736Z,4.65
2023-02-04T09:32:44.647Z,5.05
2023-02-04T09:35:11.606Z,2.97
2023-02-04T09:37:38.493Z,8.57
2023-02-04T09:40:05.809Z,5.90
2023-02-04T09:42:32.916Z,4.10
2023-02-04T09:45:03.137Z,4.80
2023-02-04T09:47:30.654Z,5.30
2023-02-04T09:49:57.553Z,6.32
2023-02-04T09:52:24.821Z,2.47
2023-02-04T09:54:53.794Z,4.78
2023-02-04T09:57:20.988Z,3.70
2023-02-04T09:59:48.051Z,4.43
2023-02-04T10:02:27.838Z,6.40
2023-02-04T10:04:57.880Z,3.47
2023-02-04T10:07:27.251Z,3.83
2023-02-04T10:09:55.029Z,4.57
2023-02-04T10:12:22.160Z,4.95
2023-02-04T10:14:49.652Z,2.95
2023-02-04T10:17:21.606Z,5.72
2023-02-04T10:19:48.676Z,4.80
2023-02-04T10:22:19.585Z,3.67
2023-02-04T10:24:46.557Z,6.28
2023-02-04T10:27:17.262Z,4.05
2023-02-04T10:29:58.840Z,4.15
2023-02-04T10:32:31.440Z,3.00
2023-02-04T10:35:00.426Z,5.20
2023-02-04T10:37:27.613Z,5.00
2023-02-04T10:39:54.716Z,3.58
2023-02-04T10:42:23.184Z,5.85
2023-02-04T10:44:50.210Z,3.53
2023-02-04T10:47:23.770Z,3.78
2023-02-04T10:49:53.645Z,4.57
2023-02-04T10:52:22.933Z,4.13
2023-02-04T10:54:52.241Z,4.90
2023-02-04T10:57:25.756Z,8.27
2023-02-04T10:59:56.163Z,4.30
2023-02-04T11:02:30.325Z,4.13
2023-02-04T11:04:57.279Z,3.35
2023-02-04T11:07:27.126Z,3.63
2023-02-04T11:09:57.203Z,4.35
2023-02-04T11:12:48.168Z,3.03
2023-02-04T11:15:41.567Z,4.47
2023-02-04T11:18:10.061Z,3.15
2023-02-04T11:20:39.962Z,3.65
2023-02-04T11:23:25.783Z,6.72
2023-02-04T11:26:17.398Z,4.07
2023-02-04T11:28:50.570Z,5.20
2023-02-04T11:31:20.670Z,3.58
2023-02-04T11:33:48.801Z,3.90
2023-02-04T11:36:16.822Z,6.32
2023-02-04T11:38:50.953Z,5.13
2023-02-04T11:41:33.477Z,4.72
2023-02-04T11:44:00.560Z,4.07
2023-02-04T11:46:27.754Z,3.75
2023-02-04T11:48:55.902Z,4.40
2023-02-04T11:51:28.702Z,4.88
2023-02-04T11:53:55.742Z,2.78
2023-02-04T11:56:23.422Z,4.35
2023-02-04T11:58:54.466Z,4.55
2023-02-04T12:01:25.184Z,3.25
2023-02-04T12:04:03.307Z,2.80
2023-02-04T12:06:36.014Z,2.88
2023-02-04T12:09:06.880Z,2.85
2023-02-04T12:11:34.189Z,2.28
2023-02-04T12:14:09.330Z,1.92
2023-02-04T12:16:49.590Z,3.70
2023-02-04T12:19:16.494Z,2.63
2023-02-04T12:21:46.051Z,4.40
2023-02-04T12:24:12.934Z,2.33
2023-02-04T12:26:39.882Z,2.80
2023-02-04T12:29:06.928Z,2.95
2023-02-04T12:31:34.148Z,4.43
2023-02-04T12:34:01.293Z,3.83
2023-02-04T12:36:29.833Z,3.05
2023-02-04T12:38:58.908Z,1.77
2023-02-04T12:41:26.511Z,2.10
2023-02-04T12:43:55.684Z,2.85
2023-02-04T12:46:22.817Z,3.10
2023-02-04T12:48:49.698Z,4.38
2023-02-04T12:51:16.646Z,4.10
2023-02-04T12:53:43.586Z,4.80
2023-02-04T12:56:12.728Z,4.15
2023-02-04T12:58:42.158Z,4.28
2023-02-04T13:01:09.142Z,5.55
2023-02-04T13:03:36.283Z,4.50
2023-02-04T13:06:05.300Z,3.08
2023-02-04T13:08:34.433Z,4.70
2023-02-04T13:11:01.346Z,4.15
2023-02-04T13:13:28.201Z,3.65
2023-02-04T13:15:55.226Z,4.55
2023-02-04T13:18:22.140Z,3.25
2023-02-04T13:20:49.025Z,3.22
2023-02-04T13:23:15.954Z,4.38
2023-02-04T13:25:44.642Z,7.28
2023-02-04T13:28:11.627Z,3.67
2023-02-04T13:30:38.598Z,2.00
2023-02-04T13:33:05.579Z,2.55
2023-02-04T13:35:33.011Z,3.05
2023-02-04T13:38:00.219Z,3.95
2023-02-04T13:40:27.168Z,3.08
2023-02-04T13:42:54.063Z,2.33
2023-02-04T13:45:23.471Z,3.13
2023-02-04T13:47:50.826Z,6.82
2023-02-04T13:50:17.864Z,3.05
2023-02-04T13:52:44.756Z,1.83
2023-02-04T13:55:11.656Z,2.95
2023-02-04T13:57:38.604Z,6.38
2023-02-04T14:00:07.288Z,2.90
2023-02-04T14:02:36.596Z,3.53
2023-02-04T14:05:03.571Z,2.88
2023-02-04T14:07:30.624Z,2.63
2023-02-04T14:09:57.569Z,3.28
2023-02-04T14:12:24.507Z,5.03
2023-02-04T14:14:54.826Z,3.65
2023-02-04T14:17:21.661Z,5.82
2023-02-04T14:19:50.858Z,3.83
2023-02-04T14:22:18.246Z,4.88
2023-02-04T14:24:45.143Z,3.28
2023-02-04T14:27:12.035Z,4.93
2023-02-04T14:29:38.994Z,3.78
2023-02-04T14:32:06.100Z,3.08
2023-02-04T14:34:33.057Z,4.82
2023-02-04T14:37:00.101Z,4.00
2023-02-04T14:39:29.493Z,3.95
2023-02-04T14:41:56.343Z,4.28
2023-02-04T14:44:25.767Z,3.90
2023-02-04T14:46:52.769Z,3.00
2023-02-04T14:49:19.804Z,4.03
2023-02-04T14:51:49.196Z,5.18
2023-02-04T14:54:16.483Z,6.32
2023-02-04T14:56:44.645Z,7.68
2023-02-04T14:59:11.593Z,15.43
2023-02-04T15:01:42.329Z,7.80
2023-02-04T15:04:11.197Z,7.45
2023-02-04T15:06:38.974Z,7.75
2023-02-04T15:09:05.960Z,4.68
2023-02-04T15:11:34.702Z,6.13
2023-02-04T15:14:04.172Z,4.35
2023-02-04T15:16:31.084Z,5.35
2023-02-04T15:18:57.978Z,5.97
2023-02-04T15:21:24.987Z,6.45
2023-02-04T15:23:52.050Z,8.82
2023-02-04T15:26:18.995Z,4.38
2023-02-04T15:28:45.870Z,17.27
2023-02-04T15:31:12.832Z,8.15
2023-02-04T15:33:39.825Z,5.28
2023-02-04T15:36:07.034Z,5.28
2023-02-04T15:38:33.969Z,4.47
2023-02-04T15:41:04.534Z,3.75
2023-02-04T15:43:31.564Z,6.15
2023-02-04T15:45:58.560Z,5.45
2023-02-04T15:48:27.585Z,7.85
2023-02-04T15:51:01.664Z,6.63
2023-02-04T15:53:30.660Z,4.78
2023-02-04T15:55:57.536Z,4.57
2023-02-04T15:58:24.440Z,6.22
2023-02-04T16:00:51.287Z,7.55
2023-02-04T16:03:18.227Z,7.28
2023-02-04T16:05:45.194Z,5.07
2023-02-04T16:08:14.173Z,9.05
2023-02-04T16:10:41.072Z,6.63
2023-02-04T16:13:07.996Z,8.65
2023-02-04T16:15:35.309Z,11.98
2023-02-04T16:18:02.395Z,5.72
2023-02-04T16:20:29.368Z,6.18
2023-02-04T16:22:57.160Z,7.82
2023-02-04T16:25:24.478Z,5.80
2023-02-04T16:27:51.460Z,5.68
2023-02-04T16:30:20.585Z,5.80
2023-02-04T16:32:47.628Z,8.45
2023-02-04T16:35:14.655Z,5.28
2023-02-04T16:37:41.749Z,5.85
2023-02-04T16:40:11.239Z,4.95
2023-02-04T16:42:38.136Z,8.35
2023-02-04T16:45:05.507Z,6.18
2023-02-04T16:47:32.381Z,5.55
2023-02-04T16:50:01.112Z,5.55
2023-02-04T16:52:28.737Z,6.80
2023-02-04T16:54:55.815Z,7.03
2023-02-04T16:57:22.696Z,4.50
2023-02-04T16:59:49.720Z,7.95
2023-02-04T17:02:16.645Z,9.20
2023-02-04T17:04:43.545Z,4.80
2023-02-04T17:07:10.446Z,7.32
2023-02-04T17:09:38.192Z,6.18
2023-02-04T17:12:05.292Z,8.55
2023-02-04T17:14:32.227Z,8.73
2023-02-04T17:16:59.170Z,9.90
2023-02-04T17:19:30.616Z,9.52
2023-02-04T17:21:57.641Z,8.65
2023-02-04T17:24:24.650Z,8.63
2023-02-04T17:26:51.597Z,7.72
2023-02-04T17:29:18.699Z,6.40
2023-02-04T17:31:45.686Z,5.78
2023-02-04T17:34:12.657Z,5.78
2023-02-04T17:36:39.812Z,9.98
2023-02-04T17:39:07.732Z,7.15
2023-02-04T17:41:37.073Z,8.25
2023-02-04T17:44:06.191Z,7.05
2023-02-04T17:46:38.082Z,7.88
2023-02-04T17:49:04.986Z,9.13
2023-02-04T17:51:31.864Z,8.52
2023-02-04T17:53:58.680Z,9.10
2023-02-04T17:56:26.097Z,8.70
2023-02-04T17:58:55.852Z,9.27
2023-02-04T18:01:26.050Z,9.90
2023-02-04T18:03:53.219Z,13.50
2023-02-04T18:06:24.586Z,9.75
2023-02-04T18:08:53.094Z,13.23
2023-02-04T18:11:27.336Z,13.90
2023-02-04T18:14:15.588Z,12.23
2023-02-04T18:16:42.811Z,13.52
2023-02-04T18:19:15.871Z,11.85
2023-02-04T18:21:45.168Z,10.23
2023-02-04T18:24:36.225Z,11.55
2023-02-04T18:27:15.454Z,10.02
2023-02-04T18:29:44.376Z,9.93
2023-02-04T18:32:20.322Z,12.23
2023-02-04T18:34:49.907Z,11.15
2023-02-04T18:37:35.905Z,11.25
2023-02-04T18:40:08.976Z,9.07
2023-02-04T18:42:41.398Z,11.77
2023-02-04T18:45:27.341Z,11.57
2023-02-04T18:47:56.226Z,12.73
2023-02-04T18:50:32.864Z,14.18
2023-02-04T18:53:15.277Z,10.85
2023-02-04T18:58:40.637Z,9.50
2023-02-04T19:01:10.694Z,11.93
2023-02-04T19:03:45.456Z,12.93
2023-02-04T19:06:30.146Z,13.63
2023-02-04T19:09:17.448Z,10.40
2023-02-04T19:11:45.234Z,14.82
2023-02-04T19:14:18.822Z,9.20
2023-02-04T19:16:47.033Z,9.40
2023-02-04T19:19:39.439Z,10.05
2023-02-04T19:22:35.518Z,11.20
2023-02-04T19:25:20.403Z,13.82
2023-02-04T19:27:54.663Z,6.22
2023-02-04T19:30:30.775Z,10.18
2023-02-04T19:33:02.477Z,8.75
2023-02-04T19:35:39.568Z,7.55
2023-02-04T19:38:29.722Z,9.80
2023-02-04T19:40:56.605Z,5.22
2023-02-04T19:43:32.290Z,7.97
2023-02-04T19:45:59.377Z,6.45
2023-02-04T19:48:38.912Z,6.78
2023-02-04T19:51:21.372Z,7.00
2023-02-04T19:53:54.590Z,8.15
2023-02-04T19:56:34.505Z,8.85
2023-02-04T19:59:24.131Z,7.13
2023-02-04T20:02:22.476Z,9.15
2023-02-04T20:04:53.880Z,7.15
2023-02-04T20:07:23.865Z,5.90
2023-02-04T20:10:13.640Z,7.95
2023-02-04T20:12:41.344Z,4.55
2023-02-04T20:15:23.726Z,11.55
2023-02-04T20:20:30.849Z,8.85
2023-02-04T20:22:57.783Z,8.73
2023-02-04T20:25:38.526Z,9.45
2023-02-04T20:28:26.642Z,5.88
2023-02-04T20:30:54.812Z,7.70
2023-02-04T20:33:35.276Z,8.52
2023-02-04T20:36:23.984Z,13.88
2023-02-04T20:38:53.492Z,8.05
2023-02-04T20:41:21.659Z,9.35
2023-02-04T20:43:54.145Z,13.48
2023-02-04T20:46:25.573Z,11.88
2023-02-04T20:48:52.855Z,8.38
2023-02-04T20:51:24.533Z,9.98
2023-02-04T20:53:58.363Z,15.63
2023-02-04T20:56:28.254Z,8.90
2023-02-04T20:59:12.729Z,21.15
2023-02-04T21:01:48.645Z,11.25
2023-02-04T21:04:33.706Z,6.85
2023-02-04T21:07:03.463Z,13.50
2023-02-04T21:09:32.813Z,7.00
2023-02-04T21:12:00.699Z,8.00
2023-02-04T21:14:29.134Z,8.65
2023-02-04T21:16:56.864Z,10.27
2023-02-04T21:19:26.032Z,9.43
2023-02-04T21:21:55.932Z,7.75
2023-02-04T21:24:26.543Z,11.10
2023-02-04T21:27:01.134Z,11.65
2023-02-04T21:29:28.063Z,12.18
2023-02-04T21:31:57.436Z,10.27
2023-02-04T21:34:24.368Z,11.07
2023-02-04T21:36:51.255Z,12.20
2023-02-04T21:39:18.195Z,11.18
2023-02-04T21:41:46.134Z,11.95
2023-02-04T21:44:13.102Z,10.52
2023-02-04T21:46:42.599Z,11.20
2023-02-04T21:49:09.476Z,11.48
2023-02-04T21:51:36.479Z,14.20
2023-02-04T21:54:05.292Z,9.85
2023-02-04T21:56:32.228Z,12.90
2023-02-04T21:58:59.191Z,15.15
2023-02-04T22:01:26.192Z,9.68
2023-02-04T22:03:55.273Z,7.45
2023-02-04T22:06:22.182Z,9.57
2023-02-04T22:08:49.155Z,10.85
2023-02-04T22:11:17.226Z,11.15
2023-02-04T22:13:45.812Z,12.02
2023-02-04T22:16:12.868Z,9.02
2023-02-04T22:18:41.880Z,12.13
2023-02-04T22:21:08.835Z,12.77
2023-02-04T22:23:35.674Z,11.25
2023-02-04T22:26:02.685Z,9.27
2023-02-04T22:28:29.536Z,9.50
2023-02-04T22:30:56.477Z,9.35
2023-02-04T22:33:23.497Z,10.52
2023-02-04T22:35:50.355Z,11.25
2023-02-04T22:38:20.180Z,11.48
2023-02-04T22:40:48.634Z,11.57
2023-02-04T22:43:15.928Z,10.43
2023-02-04T22:45:42.941Z,10.52
2023-02-04T22:48:09.868Z,9.05
2023-02-04T22:50:36.794Z,7.60
2023-02-04T22:53:03.708Z,8.68
2023-02-04T22:55:30.629Z,9.75
2023-02-04T22:57:59.990Z,8.45
2023-02-04T23:00:26.964Z,8.00
2023-02-04T23:02:53.861Z,7.45
2023-02-04T23:05:20.762Z,9.13
2023-02-04T23:07:47.894Z,11.50
2023-02-04T23:10:14.934Z,9.13
2023-02-04T23:12:41.845Z,7.22
2023-02-04T23:15:11.378Z,10.20
2023-02-04T23:17:38.336Z,10.52
2023-02-04T23:20:05.631Z,9.35
2023-02-04T23:22:32.979Z,6.95
2023-02-04T23:24:59.882Z,9.13
2023-02-04T23:27:26.848Z,9.27
2023-02-04T23:29:53.725Z,11.32
2023-02-04T23:32:20.771Z,10.40
2023-02-04T23:34:47.664Z,8.77
2023-02-04T23:37:14.567Z,7.95
2023-02-04T23:39:41.415Z,7.45
2023-02-04T23:42:10.388Z,9.60
2023-02-04T23:44:37.308Z,13.80
2023-02-04T23:47:04.268Z,10.15
2023-02-04T23:49:31.174Z,10.88
2023-02-04T23:52:00.332Z,9.65
2023-02-04T23:54:27.478Z,11.10
2023-02-04T23:56:54.389Z,8.23
2023-02-04T23:59:21.334Z,9.32
